Saltillo, México

12:48 PM EST en Julio 29, 2016 (GMT -0500)
Meteosur | | Change Station

Alt 5537 ft 25.39 °N, 101.02 °W | Updated 3 minutes ago

Scattered Clouds
Nubes dispersas
79.5 ° F
Sensación térmica 81 ° F
N
0.0
Viento Variable Viento desde NE
Gusts 0.0 mph

Hoy
Alta -- | Baja -- ° F
--% Posibilidad de precipitaciones
Ayer
Alta -- | Baja -- ° F
Precip. -- pul
Presión 30.23 pul
Visibilidad 8.0 Millas
Nubes Baja 10000 ft
Nubes dispersas 16000 ft
Nubes dispersas 20000 ft
Índice de calor 81 ° F
Punto de rocío 61 ° F
Humedad 53%
Precipitaciones 0.00 pul
Espesor de la nieve No disponible.
7:09 AM 8:30 PM
Creciente menguante, 20% visible
METAR MMIO 291645Z 04005KT 8SM FEW100 SCT160 SCT200 28/18 A3023 RMK 8/253
Presión 30.23 pul
Visibilidad 8.0 Millas
Nubes Baja 10000 ft
Nubes dispersas 16000 ft
Nubes dispersas 20000 ft
Índice de calor 81 ° F
Punto de rocío 61 ° F
Humedad 53%
Precipitaciones 0.00 pul
Espesor de la nieve No disponible.
7:09 AM 8:30 PM
Creciente menguante, 20% visible
METAR MMIO 291645Z 04005KT 8SM FEW100 SCT160 SCT200 28/18 A3023 RMK 8/253

10-Day Weather Forecast

No radar image for this location.
×

Almanac

Astronomía

Jul. 29, 2016 Salida Puesta
Hora real
Crepúsculo civil
Crepúsculo náutico
Crepúsculo astronómico
Luna
Horas de luz
Horas de luz
Tomorrow will be .
, % of the Moon is Illuminated

Extremos de hoy

Máximos del país Bajas del país

Community

WunderPhotos

Upload Photos

1,928,382 ¡fotos cargadas!

WunderBlog® & News

Nearby

Calidad del aire

  Calidad del aire Índice AQ Contaminante
Not available.

Grosos de nieve

Estación Profundido Altura

Actividad de terremotos

Ciudad Distance Mag. Tiempo y dato
Magnitud mínima muestra es 2,5.

Temperaturas de aguas costeras

Lugar Temperatura

Stations

Estaciones meteorológicas cercanas

Ubicación de la estación Temp. Vientos helados Punto de rocío Humedad Viento Precip. Alt Actualizado Tipo